createdAt,value
2023-02-27T00:00:27.241Z,1.80
2023-02-27T00:06:05.239Z,1.40
2023-02-27T00:11:14.281Z,1.40
2023-02-27T00:16:33.926Z,2.40
2023-02-27T00:21:44.880Z,1.90
2023-02-27T00:26:50.879Z,2.80
2023-02-27T00:32:04.524Z,1.80
2023-02-27T00:37:31.394Z,2.60
2023-02-27T00:42:58.817Z,2.40
2023-02-27T00:48:08.065Z,1.60
2023-02-27T00:53:24.531Z,3.00
2023-02-27T00:58:55.724Z,2.20
2023-02-27T01:04:14.225Z,2.90
2023-02-27T01:09:27.365Z,2.40
2023-02-27T01:14:49.512Z,1.90
2023-02-27T01:19:56.098Z,2.20
2023-02-27T01:25:15.530Z,1.90
2023-02-27T01:30:26.434Z,3.30
2023-02-27T01:35:41.087Z,2.00
2023-02-27T01:41:07.807Z,2.60
2023-02-27T01:46:24.908Z,2.90
2023-02-27T01:51:50.414Z,2.70
2023-02-27T01:56:57.614Z,1.90
2023-02-27T02:02:31.137Z,1.70
2023-02-27T02:07:38.631Z,1.70
2023-02-27T02:12:55.900Z,1.20
2023-02-27T02:19:20.383Z,1.80
2023-02-27T02:24:56.549Z,1.40
2023-02-27T02:31:21.238Z,2.10
2023-02-27T02:37:36.580Z,2.70
2023-02-27T02:43:11.174Z,2.30
2023-02-27T02:48:42.733Z,2.30
2023-02-27T02:54:10.685Z,1.80
2023-02-27T03:00:00.801Z,1.70
2023-02-27T03:05:40.246Z,1.30
2023-02-27T03:10:59.666Z,1.40
2023-02-27T03:16:34.196Z,1.30
2023-02-27T03:22:06.630Z,1.30
2023-02-27T03:27:16.687Z,0.90
2023-02-27T03:32:54.875Z,0.90
2023-02-27T03:38:27.941Z,1.10
2023-02-27T03:44:30.938Z,1.40
2023-02-27T03:49:51.086Z,1.00
2023-02-27T03:55:01.642Z,1.50
2023-02-27T04:00:12.643Z,0.90
2023-02-27T04:05:46.742Z,6.30
2023-02-27T04:11:30.590Z,5.50
2023-02-27T04:16:42.834Z,4.20
2023-02-27T04:22:29.118Z,4.40
2023-02-27T04:27:51.176Z,2.50
2023-02-27T04:33:18.508Z,2.60
2023-02-27T04:38:33.154Z,5.20
2023-02-27T04:43:46.082Z,4.70
2023-02-27T04:49:12.777Z,4.60
2023-02-27T04:54:28.431Z,8.30
2023-02-27T04:59:58.554Z,7.20
2023-02-27T05:05:17.790Z,7.60
2023-02-27T05:10:37.882Z,7.20
2023-02-27T05:15:49.756Z,5.50
2023-02-27T05:21:09.609Z,6.10
2023-02-27T05:27:14.230Z,4.70
2023-02-27T05:32:42.187Z,4.00
2023-02-27T05:38:06.610Z,3.90
2023-02-27T05:43:21.360Z,4.90
2023-02-27T05:48:35.952Z,5.40
2023-02-27T05:53:50.888Z,7.70
2023-02-27T05:59:14.741Z,7.70
2023-02-27T06:04:20.812Z,7.20
2023-02-27T06:09:24.108Z,6.50
2023-02-27T06:14:27.853Z,5.50
2023-02-27T06:19:31.211Z,4.90
2023-02-27T06:24:39.889Z,7.10
2023-02-27T06:29:43.156Z,23.10
2023-02-27T06:34:49.545Z,6.80
2023-02-27T06:39:52.996Z,3.30
2023-02-27T06:44:56.229Z,2.60
2023-02-27T06:49:59.761Z,2.30
2023-02-27T06:55:04.794Z,2.40
2023-02-27T07:00:12.482Z,2.10
2023-02-27T07:05:18.326Z,1.30
2023-02-27T07:10:21.623Z,1.80
2023-02-27T07:15:25.377Z,1.30
2023-02-27T07:20:28.737Z,1.20
2023-02-27T07:25:31.919Z,1.60
2023-02-27T07:30:35.272Z,1.50
2023-02-27T07:35:38.969Z,1.10
2023-02-27T07:40:45.021Z,1.50
2023-02-27T07:45:55.732Z,1.60
2023-02-27T07:51:02.265Z,2.10
2023-02-27T07:56:06.461Z,1.80
2023-02-27T08:01:12.282Z,2.20
2023-02-27T08:06:20.605Z,1.70
2023-02-27T08:11:24.126Z,2.10
2023-02-27T08:16:33.737Z,3.80
2023-02-27T08:21:45.835Z,1.40
2023-02-27T08:26:58.265Z,3.30
2023-02-27T08:32:05.183Z,2.20
2023-02-27T08:37:08.452Z,1.70
2023-02-27T08:42:11.663Z,1.60
2023-02-27T08:47:15.064Z,1.50
2023-02-27T08:52:39.005Z,1.00
2023-02-27T08:57:48.516Z,2.10
2023-02-27T09:02:57.200Z,1.20
2023-02-27T09:08:08.363Z,1.80
2023-02-27T09:13:17.353Z,1.10
2023-02-27T09:18:24.347Z,0.80
2023-02-27T09:23:45.547Z,2.80
2023-02-27T09:28:49.764Z,1.20
2023-02-27T09:33:53.226Z,0.80
2023-02-27T09:38:59.042Z,0.90
2023-02-27T09:44:47.678Z,0.70
2023-02-27T09:50:09.202Z,0.90
2023-02-27T09:55:35.081Z,1.20
2023-02-27T10:01:10.262Z,1.20
2023-02-27T10:06:33.790Z,0.60
2023-02-27T10:12:13.579Z,0.80
2023-02-27T10:17:35.370Z,0.70
2023-02-27T10:22:46.334Z,1.10
2023-02-27T10:27:57.102Z,1.20
2023-02-27T10:33:39.204Z,1.00
2023-02-27T10:38:51.178Z,1.10
2023-02-27T10:44:01.770Z,1.50
2023-02-27T10:49:24.050Z,1.00
2023-02-27T10:54:27.464Z,1.70
2023-02-27T10:59:38.927Z,1.30
2023-02-27T11:05:12.382Z,1.40
2023-02-27T11:10:28.984Z,0.90
2023-02-27T11:15:38.593Z,1.60
2023-02-27T11:21:04.502Z,1.40
2023-02-27T11:26:57.669Z,1.30
2023-02-27T11:32:12.759Z,1.50
2023-02-27T11:37:35.949Z,1.50
2023-02-27T11:42:56.136Z,1.00
2023-02-27T11:48:18.626Z,1.20
2023-02-27T11:54:15.855Z,1.50
2023-02-27T11:59:49.244Z,0.90
2023-02-27T12:04:57.891Z,0.80
2023-02-27T12:10:35.641Z,1.30
2023-02-27T12:16:31.647Z,0.90
2023-02-27T12:21:45.311Z,0.70
2023-02-27T12:27:30.172Z,6.00
2023-02-27T12:32:50.859Z,1.80
2023-02-27T12:38:07.823Z,1.50
2023-02-27T12:44:15.790Z,2.40
2023-02-27T12:49:42.086Z,1.70
2023-02-27T12:55:49.003Z,1.20
2023-02-27T13:01:41.781Z,0.80
2023-02-27T13:07:38.705Z,2.30
2023-02-27T13:13:17.324Z,1.30
2023-02-27T13:19:01.565Z,0.60
2023-02-27T13:24:33.736Z,0.80
2023-02-27T13:29:55.683Z,1.10
2023-02-27T13:36:00.474Z,1.20
2023-02-27T13:41:50.524Z,0.90
2023-02-27T13:47:37.966Z,0.80
2023-02-27T13:52:48.761Z,0.70
2023-02-27T13:57:57.950Z,0.80
2023-02-27T14:03:33.732Z,1.10
2023-02-27T14:09:14.099Z,1.50
2023-02-27T14:14:57.471Z,3.10
2023-02-27T14:20:30.968Z,9.40
2023-02-27T14:25:41.219Z,3.60
2023-02-27T14:31:07.709Z,1.40
2023-02-27T14:37:17.346Z,1.70
2023-02-27T14:43:06.901Z,1.70
2023-02-27T14:48:38.895Z,14.60
2023-02-27T14:54:19.420Z,7.30
2023-02-27T14:59:56.528Z,5.00
2023-02-27T15:05:02.673Z,26.20
2023-02-27T15:10:17.327Z,25.30
2023-02-27T15:15:31.586Z,4.10
2023-02-27T15:20:37.990Z,61.10
2023-02-27T15:25:54.565Z,21.20
2023-02-27T15:31:20.863Z,5.10
2023-02-27T15:36:45.176Z,25.10
2023-02-27T15:41:59.287Z,37.20
2023-02-27T15:47:26.164Z,10.20
2023-02-27T15:53:34.923Z,23.70
2023-02-27T15:59:17.562Z,32.00
2023-02-27T16:04:53.612Z,13.20
2023-02-27T16:11:11.616Z,6.70
2023-02-27T16:44:32.308Z,3.00
2023-02-27T16:50:50.556Z,3.70
2023-02-27T16:57:15.675Z,4.80
2023-02-27T17:03:23.865Z,68.10
2023-02-27T17:09:33.699Z,209.80
2023-02-27T17:14:58.194Z,38.30
2023-02-27T17:21:13.946Z,11.60
2023-02-27T17:34:10.667Z,15.20
2023-02-27T17:40:03.965Z,27.00
2023-02-27T17:46:06.706Z,9.30
2023-02-27T17:51:40.327Z,14.70
2023-02-27T17:56:56.385Z,21.10
2023-02-27T18:02:32.845Z,28.10
2023-02-27T18:07:49.546Z,29.20
2023-02-27T18:13:10.604Z,11.20
2023-02-27T18:18:17.498Z,6.90
2023-02-27T18:23:56.875Z,4.70
2023-02-27T18:30:20.416Z,6.30
2023-02-27T18:38:01.309Z,22.70
2023-02-27T18:42:00.281Z,33.40
2023-02-27T18:47:30.387Z,10.10
2023-02-27T18:53:02.169Z,7.60
2023-02-27T18:58:06.282Z,5.50
2023-02-27T19:03:24.557Z,3.00
2023-02-27T19:09:35.064Z,19.90
2023-02-27T19:14:50.191Z,15.70
2023-02-27T19:20:09.349Z,8.70
2023-02-27T19:25:17.205Z,11.50
2023-02-27T19:30:29.213Z,13.60
2023-02-27T19:36:16.959Z,9.30
2023-02-27T19:41:53.655Z,11.30
2023-02-27T19:47:55.630Z,8.00
2023-02-27T20:07:50.766Z,11.70
2023-02-27T20:13:56.486Z,23.20
2023-02-27T20:18:59.826Z,34.10
2023-02-27T20:24:03.527Z,41.90
2023-02-27T20:29:17.459Z,39.70
2023-02-27T20:34:25.867Z,40.40
2023-02-27T20:39:29.837Z,29.30
2023-02-27T20:44:44.678Z,23.70
2023-02-27T20:49:47.825Z,30.70
2023-02-27T20:55:04.569Z,39.20
2023-02-27T21:00:25.448Z,48.80
2023-02-27T21:05:34.476Z,47.70
2023-02-27T21:10:51.144Z,86.80
2023-02-27T21:16:00.490Z,68.20
2023-02-27T21:21:11.028Z,56.70
2023-02-27T21:26:34.813Z,40.50
2023-02-27T21:31:52.429Z,36.20
2023-02-27T21:37:03.041Z,67.50
2023-02-27T21:42:09.118Z,46.10
2023-02-27T21:47:12.544Z,99.40
2023-02-27T21:52:21.244Z,105.80
2023-02-27T21:57:24.499Z,91.30
2023-02-27T22:02:31.071Z,97.40
2023-02-27T22:08:14.841Z,102.20
2023-02-27T22:13:36.481Z,76.30
2023-02-27T22:18:42.983Z,86.00
2023-02-27T22:24:04.712Z,64.80
2023-02-27T22:29:34.006Z,84.90
2023-02-27T22:34:37.233Z,110.90
2023-02-27T22:40:37.390Z,119.50
2023-02-27T22:46:11.398Z,147.70
2023-02-27T22:52:00.483Z,172.40
2023-02-27T22:57:12.687Z,153.60
2023-02-27T23:02:18.999Z,112.70
2023-02-27T23:07:24.928Z,100.20
2023-02-27T23:12:51.598Z,86.10
2023-02-27T23:18:04.172Z,69.30
2023-02-27T23:23:13.180Z,53.20
2023-02-27T23:28:30.042Z,49.20
2023-02-27T23:33:50.788Z,58.50
2023-02-27T23:38:54.437Z,64.10
2023-02-27T23:44:16.788Z,64.80
2023-02-27T23:49:27.361Z,62.20
2023-02-27T23:54:30.656Z,71.50
2023-02-27T23:59:33.918Z,59.50
